• Join FlightAware (Why Join?)
  • Login
  • US Flag 
11:55AM EDT


 

Airport Tracker/Info


-or-


 

Live Flight TrackerFlight Track Log ✈ DAL1117 ✈ 07-Sep-2013 ✈ KMSP - KIND

Flight Track Log - Related Links

Times and Time Zones

All times are in EDT time to prevent confusion due to time zone crossing. See the DAL1117 flight status page for this flight to view local times or setup timezone preferences in your user account.

Time Position Orientation Groundspeed Altitude Reporting Facility
EDT Latitude Longitude Course Direction KTS MPH feet Rate Location/Type
02:16PM 44.9000 -93.2833 128° Southeast 205 236 2,100  Level Minneapolis TRACON
02:17PM 44.8908 -93.3492 259° West 266 306 3,300 1,020 Climbing Minneapolis Center
02:18PM 44.8642 -93.4494 249° West 294 338 4,000 960 Climbing Minneapolis Center
02:19PM 44.5302 -92.6917 125° Southeast  Level Estimated
02:19PM 44.7883 -93.4647 188° South 284 327 5,400  Level Minneapolis Center
02:20PM 44.4419 -92.5602 121° Southeast  Level Estimated
02:20PM 44.7144 -93.4408 167° South 290 334 8,300  Level Minneapolis Center
02:21PM 44.3625 -92.4182 128° Southeast  Level FlightAware Approximate
02:21PM 44.6756 -93.3397 118° Southeast 300 345 10,600  Level Minneapolis Center
02:22PM 44.6214 -93.1947 118° Southeast 371 427 11,900 1,560 Climbing Minneapolis Center
02:23PM 44.5703 -93.0556 117° Southeast 405 466 13,900 1,920 Climbing Minneapolis Center
02:24PM 44.5167 -92.9119 118° Southeast 419 482 15,900 1,800 Climbing Minneapolis Center
02:25PM 44.4600 -92.7622 118° Southeast 435 501 17,700 1,560 Climbing Minneapolis Center
02:26PM 44.4017 -92.6103 118° Southeast 441 507 19,200 1,620 Climbing Minneapolis Center
02:27PM 44.3289 -92.4150 117° Southeast 469 540 21,100 1,560 Climbing Minneapolis Center
02:28PM 44.2594 -92.2575 122° Southeast 478 550 22,500 1,260 Climbing Minneapolis Center
02:29PM 44.1889 -92.0961 121° Southeast 488 562 23,800 1,260 Climbing Minneapolis Center
02:30PM 44.1161 -91.9347 122° Southeast 491 565 25,200 1,320 Climbing Minneapolis Center
02:31PM 44.0233 -91.7814 130° Southeast 509 586 26,600 1,380 Climbing Minneapolis Center
02:32PM 43.9242 -91.6356 133° Southeast 500 575 28,100 1,500 Climbing Minneapolis Center
02:33PM 43.8306 -91.4992 134° Southeast 494 568 29,800 1,320 Climbing Minneapolis Center
02:34PM 43.7369 -91.3614 133° Southeast 493 567 30,900 540 Climbing Minneapolis Center
02:35PM 43.6436 -91.2244 133° Southeast 493 567 31,000  Climbing Minneapolis Center
02:36PM 43.5681 -91.1181 134° Southeast 490 564 31,000  Level Chicago Center
02:37PM 43.4558 -90.9533 133° Southeast 493 567 31,000  Level Chicago Center
02:38PM 43.3622 -90.8189 134° Southeast 490 564 31,000  Level Chicago Center
02:39PM 43.2694 -90.6833 133° Southeast 490 564 31,000  Level Chicago Center
02:40PM 43.1756 -90.5511 134° Southeast 487 560 31,000  Level Chicago Center
02:41PM 43.0808 -90.4158 134° Southeast 492 566 31,000  Level Chicago Center
02:42PM 42.9869 -90.2828 134° Southeast 489 563 31,000  Level Chicago Center
02:43PM 42.8753 -90.1258 134° Southeast 483 556 31,000  Level Chicago Center
02:44PM 42.7822 -89.9942 134° Southeast 483 556 31,000  Level Chicago Center
02:45PM 42.6894 -89.8639 134° Southeast 481 554 31,000  Level Chicago Center
02:46PM 42.5975 -89.7347 134° Southeast 479 551 31,000  Level Chicago Center
02:47PM 42.5033 -89.6061 135° Southeast 482 555 31,000  Level Chicago Center
02:49PM 42.3908 -89.4492 134° Southeast 487 560 31,000  Level Chicago Center
02:50PM 42.2994 -89.3269 135° Southeast 479 551 31,000  Level Chicago Center
02:51PM 42.2069 -89.1989 134° Southeast 478 550 31,000  Level Chicago Center
02:52PM 42.1122 -89.0711 135° Southeast 481 554 31,000  Level Chicago Center
02:53PM 42.0178 -88.9439 135° Southeast 482 555 31,000  Level Chicago Center
02:54PM 41.9028 -88.7883 135° Southeast 490 564 31,000  Level Chicago Center
02:55PM 41.8069 -88.6611 135° Southeast 488 562 31,000  Level Chicago Center
02:56PM 41.7108 -88.5336 135° Southeast 489 563 31,000  Level Chicago Center
02:57PM 41.6153 -88.4064 135° Southeast 488 562 31,000 -300 Level Chicago Center
02:58PM 41.5139 -88.2908 140° Southeast 487 560 30,400 -900 Descending Chicago Center
02:59PM 41.3769 -88.1831 149° Southeast 491 565 29,200 -1,080 Descending Chicago Center
03:00PM 41.2650 -88.0931 149° Southeast 487 560 28,200 -1,080 Descending Chicago Center
03:01PM 41.1494 -88.0008 149° Southeast 490 564 27,100 -960 Descending Chicago Center
03:02PM 41.0358 -87.9103 149° Southeast 485 558 26,300 -960 Descending Chicago Center
03:03PM 40.9014 -87.8056 150° Southeast 475 547 25,200 -960 Descending Chicago Center
03:04PM 40.7903 -87.7183 149° Southeast 469 540 24,400 -720 Descending Chicago Center
03:05PM 40.6822 -87.6300 148° Southeast 462 532 23,800 -540 Descending Chicago Center
03:06PM 40.5983 -87.5092 132° Southeast 452 520 23,300 -1,020 Descending Chicago Center
03:07PM 40.5153 -87.3900 132° Southeast 444 511 21,800 -2,040 Descending Chicago Center
03:08PM 40.4311 -87.2650 131° Southeast 433 498 19,100 -2,460 Descending Chicago Center
03:09PM 40.3533 -87.1528 132° Southeast 418 481 16,800 -2,340 Descending Chicago Center
03:10PM 40.2800 -87.0419 131° Southeast 405 466 14,400 -1,860 Descending Chicago Center
03:11PM 40.1925 -86.9142 132° Southeast 395 455 13,000 -1,260 Descending Chicago Center
03:12PM 40.1211 -86.8103 132° Southeast 387 445 11,800 -1,140 Descending Chicago Center
03:13PM 40.0767 -86.7464 132° Southeast 389 448 11,100 -480 Descending Indianapolis Center
03:14PM 40.0069 -86.6453 132° Southeast 383 441 11,000 -120 Descending Indianapolis Center
03:15PM 39.9375 -86.5444 132° Southeast 378 435 10,900 -480 Descending Indianapolis Center
03:16PM 39.8739 -86.4508 132° Southeast 358 412 10,100 -1,380 Descending Indianapolis Center
03:17PM 39.8056 -86.3497 131° Southeast 318 366 8,100 -1,440 Descending Indianapolis Center
03:18PM 39.8283 -86.2583 72° East 289 333 7,200 -1,440 Descending Indianapolis Center
03:19PM 39.8700 -86.1881 52° Northeast 262 302 5,200 -1,980 Descending Indianapolis Center
03:20PM 39.8508 -86.1253 112° Southeast 244 281 3,200 -1,260 Descending Indianapolis Center
03:21PM 39.8089 -86.1653 216° Southwest 210 242 2,700 -480 Descending Indianapolis Center
03:22PM 39.7733 -86.2117 225° Southwest 193 222 2,300 -600 Descending Indianapolis Center
03:23PM 39.7414 -86.2522 224° Southwest 175 201 1,500 -780 Descending Indianapolis Center
03:24PM 39.7094 -86.2933 225° Southwest 159 183 800 -720 Descending Indianapolis Center